Página principal
METAR-TAF:

METAR-TAF

Aeroportos :

Cartum, Sudão

Aeroporto Internacional de Cartum

latitude: 15-36N, longitude: 032-33E, altura: 382 m

Observação actual do tempo

O boletim foi feito há 15 minutos, às 15:00 UTC
Vento 14 kt de norte
Temperatura 29°C
Humidade 20%
Pressão 1013 hPa
Visibilidade 10 km ou mais
sem nuvens abaixo de 1500 metros e sem cumulonimbus

METAR: HSSS 161500Z 35014KT CAVOK 29/04 Q1013 NOSIG

Hora: 18:15 (15:15 UTC)

Previsão

O boletim foi feito há 4 horas e 15 minutos, às 11:00 UTC
Previsão válida de 16 às 12 UTC a 17 às 18 UTC
Vento 12 kt de nor-nordeste com rajadas de 22 kt
Visibilidade 10 km ou mais
sem nuvens abaixo de 1500 metros e sem cumulonimbus

TAF: HSSS 161100Z 1612/1718 02012G22KT CAVOK

Observações e previsões do tempo de mais de 4000 aeroportos (mensagens METAR e TAF).

As estações disponíveis são os pontos amarelos e vermelhos sobre o mapa.

Mova o rato sobre o mapa para ver o nome da estação.

Depois clique no ponto para visualizar as observações e previsões meteorológicas.

Para alterar o mapa : clique nos botões verdes com uma cruz preta para aumentar o zoom; no botão verde com uma pitada de zoom; ou nas setas verdes para mapas adjacentes.


METAR-TAF: